createdAt,value
2017-10-13T00:00:53.415Z,96.94
2017-10-13T00:01:52.601Z,96.84
2017-10-13T00:02:52.956Z,96.75
2017-10-13T00:03:53.216Z,96.65
2017-10-13T00:04:52.766Z,96.55
2017-10-13T00:05:53.179Z,96.46
2017-10-13T00:06:52.732Z,96.46
2017-10-13T00:07:53.137Z,96.36
2017-10-13T00:08:53.425Z,96.27
2017-10-13T00:09:52.802Z,96.27
2017-10-13T00:10:53.750Z,96.27
2017-10-13T00:11:53.072Z,96.27
2017-10-13T00:12:52.759Z,96.27
2017-10-13T00:13:53.367Z,96.17
2017-10-13T00:14:52.850Z,96.27
2017-10-13T00:15:53.119Z,96.36
2017-10-13T00:16:53.466Z,96.46
2017-10-13T00:17:52.920Z,96.36
2017-10-13T00:18:53.105Z,96.46
2017-10-13T00:19:52.287Z,96.36
2017-10-13T00:20:52.640Z,96.41
2017-10-13T00:21:53.482Z,96.36
2017-10-13T00:22:52.616Z,96.32
2017-10-13T00:23:52.815Z,96.22
2017-10-13T00:24:52.707Z,96.22
2017-10-13T00:25:53.037Z,96.12
2017-10-13T00:26:53.105Z,96.12
2017-10-13T00:27:53.573Z,96.12
2017-10-13T00:28:52.538Z,96.22
2017-10-13T00:29:52.736Z,96.22
2017-10-13T00:30:53.233Z,96.22
2017-10-13T00:31:52.639Z,96.12
2017-10-13T00:32:53.109Z,96.12
2017-10-13T00:33:52.948Z,96.03
2017-10-13T00:34:54.253Z,96.12
2017-10-13T00:35:52.565Z,96.12
2017-10-13T00:36:53.020Z,96.22
2017-10-13T00:37:52.335Z,96.22
2017-10-13T00:38:53.057Z,96.22
2017-10-13T00:39:53.256Z,96.17
2017-10-13T00:40:52.550Z,96.17
2017-10-13T00:41:53.309Z,96.17
2017-10-13T00:42:52.628Z,96.36
2017-10-13T00:43:53.086Z,96.46
2017-10-13T00:44:52.610Z,96.55
2017-10-13T00:45:52.723Z,96.84
2017-10-13T00:46:52.822Z,97.03
2017-10-13T00:47:53.060Z,97.03
2017-10-13T00:48:54.979Z,97.31
2017-10-13T00:49:52.440Z,97.41
2017-10-13T00:50:52.602Z,97.79
2017-10-13T00:51:52.768Z,97.99
2017-10-13T00:52:53.192Z,98.13
2017-10-13T00:53:52.687Z,98.13
2017-10-13T00:54:52.643Z,98.60
2017-10-13T00:55:53.844Z,98.69
2017-10-13T00:56:52.969Z,98.88
2017-10-13T00:57:53.289Z,98.98
2017-10-13T00:58:52.677Z,98.88
2017-10-13T00:59:53.472Z,98.88
2017-10-13T01:00:52.770Z,99.08
2017-10-13T01:01:53.209Z,99.08
2017-10-13T01:02:52.409Z,99.03
2017-10-13T01:03:52.809Z,98.84
2017-10-13T01:04:53.095Z,98.65
2017-10-13T01:05:52.407Z,98.46
2017-10-13T01:06:52.706Z,98.27
2017-10-13T01:07:53.196Z,98.08
2017-10-13T01:08:52.490Z,97.99
2017-10-13T01:09:53.825Z,97.89
2017-10-13T01:10:53.169Z,97.79
2017-10-13T01:11:53.327Z,97.70
2017-10-13T01:12:52.720Z,97.70
2017-10-13T01:13:53.115Z,97.70
2017-10-13T01:14:53.426Z,97.79
2017-10-13T01:15:52.726Z,97.89
2017-10-13T01:16:52.908Z,97.89
2017-10-13T01:17:53.114Z,97.89
2017-10-13T01:18:53.371Z,97.99
2017-10-13T01:19:52.633Z,98.08
2017-10-13T01:20:53.190Z,98.27
2017-10-13T01:21:53.145Z,98.36
2017-10-13T01:22:52.430Z,98.55
2017-10-13T01:23:52.492Z,98.55
2017-10-13T01:24:52.650Z,98.55
2017-10-13T01:25:52.887Z,98.74
2017-10-13T01:26:52.919Z,98.94
2017-10-13T01:27:52.878Z,99.08
2017-10-13T01:28:53.181Z,99.08
2017-10-13T01:29:52.637Z,99.17
2017-10-13T01:30:53.031Z,99.13
2017-10-13T01:31:53.563Z,99.13
2017-10-13T01:32:52.659Z,99.13
2017-10-13T01:33:53.001Z,99.22
2017-10-13T01:34:52.708Z,99.17
2017-10-13T01:35:53.082Z,99.27
2017-10-13T01:36:52.282Z,99.46
2017-10-13T01:37:52.383Z,99.46
2017-10-13T01:38:52.931Z,99.46
2017-10-13T01:39:53.070Z,99.55
2017-10-13T01:40:53.283Z,99.65
2017-10-13T01:41:52.560Z,99.65
2017-10-13T01:42:53.123Z,99.65
2017-10-13T01:43:52.308Z,99.65
2017-10-13T01:44:52.501Z,99.84
2017-10-13T01:45:52.790Z,99.93
2017-10-13T01:46:52.972Z,99.99
2017-10-13T01:47:53.290Z,99.99
2017-10-13T01:48:52.632Z,99.99
2017-10-13T01:49:52.886Z,99.99
2017-10-13T01:50:53.113Z,99.99
2017-10-13T01:51:52.543Z,99.99
2017-10-13T01:52:52.923Z,99.99
2017-10-13T01:53:53.548Z,99.99
2017-10-13T01:54:52.605Z,99.99
2017-10-13T01:55:52.841Z,99.99
2017-10-13T01:56:53.139Z,99.99
2017-10-13T01:57:52.783Z,99.99
2017-10-13T01:58:52.713Z,99.99
2017-10-13T01:59:52.655Z,99.99
2017-10-13T02:00:52.970Z,99.99
2017-10-13T02:01:52.715Z,99.99
2017-10-13T02:02:53.078Z,99.99
2017-10-13T02:03:52.593Z,99.99
2017-10-13T02:04:53.319Z,99.99
2017-10-13T02:05:52.702Z,99.99
2017-10-13T02:06:53.180Z,99.99
2017-10-13T02:07:52.889Z,99.99
2017-10-13T02:08:52.791Z,99.99
2017-10-13T02:09:52.577Z,99.99
2017-10-13T02:10:53.023Z,99.99
2017-10-13T02:11:52.304Z,99.99
2017-10-13T02:12:52.561Z,99.99
2017-10-13T02:13:52.708Z,99.99
2017-10-13T02:14:52.931Z,99.99
2017-10-13T02:15:53.276Z,99.99
2017-10-13T02:16:52.403Z,99.99
2017-10-13T02:17:52.775Z,99.99
2017-10-13T02:18:53.118Z,99.99
2017-10-13T02:19:52.594Z,99.99
2017-10-13T02:20:52.933Z,99.99
2017-10-13T02:21:53.548Z,99.99
2017-10-13T02:22:52.503Z,99.99
2017-10-13T02:23:52.539Z,99.99
2017-10-13T02:24:52.806Z,99.99
2017-10-13T02:25:53.024Z,99.99
2017-10-13T02:26:53.637Z,99.99
2017-10-13T02:27:52.959Z,99.99
2017-10-13T02:28:53.116Z,99.99
2017-10-13T02:29:53.351Z,99.99
2017-10-13T02:30:52.450Z,99.99
2017-10-13T02:31:52.629Z,99.99
2017-10-13T02:32:52.249Z,99.99
2017-10-13T02:33:52.726Z,99.99
2017-10-13T02:34:52.968Z,99.99
2017-10-13T02:35:53.432Z,99.99
2017-10-13T02:36:52.507Z,99.99
2017-10-13T02:37:53.398Z,99.99
2017-10-13T02:38:52.428Z,99.99
2017-10-13T02:39:52.526Z,99.99
2017-10-13T02:40:52.751Z,99.99
2017-10-13T02:41:52.918Z,99.99
2017-10-13T02:42:53.369Z,99.99
2017-10-13T02:43:53.092Z,99.99
2017-10-13T02:44:52.353Z,99.99
2017-10-13T02:45:52.495Z,99.99
2017-10-13T02:46:52.713Z,99.99
2017-10-13T02:47:52.934Z,99.99
2017-10-13T02:48:53.357Z,99.99
2017-10-13T02:49:52.783Z,99.99
2017-10-13T02:50:52.706Z,99.99
2017-10-13T02:51:52.900Z,99.99
2017-10-13T02:52:52.983Z,99.99
2017-10-13T02:53:53.601Z,99.99
2017-10-13T02:54:52.815Z,99.99
2017-10-13T02:55:53.204Z,99.99
2017-10-13T02:56:52.506Z,99.99
2017-10-13T02:57:52.859Z,99.99
2017-10-13T02:58:53.711Z,99.99
2017-10-13T02:59:53.024Z,99.99
2017-10-13T03:00:53.344Z,99.99
2017-10-13T03:01:52.520Z,99.99
2017-10-13T03:02:52.616Z,99.99
2017-10-13T03:03:52.938Z,99.99
2017-10-13T03:04:53.431Z,99.99
2017-10-13T03:05:52.471Z,99.99
2017-10-13T03:06:52.591Z,99.99
2017-10-13T03:07:52.956Z,99.99
2017-10-13T03:08:52.948Z,99.99
2017-10-13T03:09:53.262Z,99.99
2017-10-13T03:10:52.788Z,99.99
2017-10-13T03:11:53.128Z,99.99
2017-10-13T03:12:52.657Z,99.99
2017-10-13T03:13:52.621Z,99.99
2017-10-13T03:14:52.779Z,99.99
2017-10-13T03:15:52.808Z,99.99
2017-10-13T03:16:52.905Z,99.99
2017-10-13T03:17:53.197Z,99.99
2017-10-13T03:18:53.457Z,99.99
2017-10-13T03:19:52.430Z,99.99
2017-10-13T03:20:52.863Z,99.99
2017-10-13T03:21:53.101Z,99.99
2017-10-13T03:22:53.108Z,99.99
2017-10-13T03:23:53.157Z,99.99
2017-10-13T03:24:52.460Z,99.99
2017-10-13T03:25:52.691Z,99.99
2017-10-13T03:26:53.250Z,99.99
2017-10-13T03:27:52.735Z,99.99
2017-10-13T03:28:52.809Z,99.99
2017-10-13T03:29:53.276Z,99.99
2017-10-13T03:30:52.489Z,99.99
2017-10-13T03:31:52.692Z,99.99
2017-10-13T03:32:54.408Z,99.99
2017-10-13T03:33:52.537Z,99.99
2017-10-13T03:34:52.778Z,99.99
2017-10-13T03:35:53.083Z,99.99
2017-10-13T03:36:52.635Z,99.99
2017-10-13T03:37:52.921Z,99.99
2017-10-13T03:38:53.587Z,99.99
2017-10-13T03:39:53.485Z,99.99
2017-10-13T03:40:52.618Z,99.99
2017-10-13T03:41:52.895Z,99.99
2017-10-13T03:42:53.120Z,99.99
2017-10-13T03:43:53.341Z,99.99
2017-10-13T03:44:52.622Z,99.99
2017-10-13T03:45:52.934Z,99.99
2017-10-13T03:46:52.975Z,99.99
2017-10-13T03:47:53.335Z,99.99
2017-10-13T03:48:52.330Z,99.99
2017-10-13T03:49:52.857Z,99.99
2017-10-13T03:50:53.077Z,99.99
2017-10-13T03:51:52.502Z,99.99
2017-10-13T03:52:53.306Z,99.99
2017-10-13T03:53:52.401Z,99.99
2017-10-13T03:54:52.547Z,99.99
2017-10-13T03:55:53.369Z,99.99
2017-10-13T03:56:52.765Z,99.99
2017-10-13T03:57:53.060Z,99.99
2017-10-13T03:58:52.440Z,99.99
2017-10-13T03:59:52.729Z,99.99
2017-10-13T04:00:52.941Z,99.99
2017-10-13T04:01:53.400Z,99.99
2017-10-13T04:02:52.725Z,99.99
2017-10-13T04:03:52.940Z,99.99
2017-10-13T04:04:53.281Z,99.99
2017-10-13T04:05:52.401Z,99.99
2017-10-13T04:06:52.529Z,99.99
2017-10-13T04:07:52.956Z,99.99
2017-10-13T04:08:52.989Z,99.99
2017-10-13T04:09:53.260Z,99.99
2017-10-13T04:10:53.105Z,99.99
2017-10-13T04:11:53.439Z,99.99
2017-10-13T04:12:52.865Z,99.99
2017-10-13T04:13:53.028Z,99.99
2017-10-13T04:14:52.600Z,99.99
2017-10-13T04:15:52.687Z,99.99
2017-10-13T04:16:53.122Z,99.99
2017-10-13T04:17:53.547Z,99.99
2017-10-13T04:18:52.612Z,99.99
2017-10-13T04:19:52.967Z,99.99
2017-10-13T04:20:53.113Z,99.99
2017-10-13T04:21:53.520Z,99.99
2017-10-13T04:22:52.728Z,99.99
2017-10-13T04:23:53.189Z,99.99
2017-10-13T04:24:52.620Z,99.99
2017-10-13T04:25:52.726Z,99.99
2017-10-13T04:26:52.807Z,99.99
2017-10-13T04:27:53.227Z,99.99
2017-10-13T04:28:53.314Z,99.99
2017-10-13T04:29:52.793Z,99.99
2017-10-13T04:30:52.980Z,99.99
2017-10-13T04:31:52.587Z,99.99
2017-10-13T04:32:52.806Z,99.99
2017-10-13T04:33:53.436Z,99.99
2017-10-13T04:34:52.489Z,99.99
2017-10-13T04:35:53.058Z,99.99
2017-10-13T04:36:52.770Z,99.99
2017-10-13T04:37:52.952Z,99.99
2017-10-13T04:38:52.773Z,99.99
2017-10-13T04:39:53.611Z,99.99
2017-10-13T04:40:52.760Z,99.99
2017-10-13T04:41:52.984Z,99.99
2017-10-13T04:43:28.688Z,99.99
2017-10-13T04:44:28.708Z,99.99
2017-10-13T04:45:29.096Z,99.99
2017-10-13T04:46:29.372Z,99.99
2017-10-13T04:47:28.918Z,99.99
2017-10-13T04:48:29.345Z,99.99
2017-10-13T04:49:29.307Z,99.99
2017-10-13T04:50:29.948Z,99.99
2017-10-13T04:51:29.318Z,99.99
2017-10-13T04:52:29.524Z,99.99
2017-10-13T04:53:28.549Z,99.99
2017-10-13T04:54:28.787Z,99.99
2017-10-13T04:55:29.018Z,99.99
2017-10-13T04:56:29.594Z,99.99
2017-10-13T04:57:28.911Z,99.99
2017-10-13T04:58:29.208Z,99.99
2017-10-13T04:59:29.493Z,99.99
2017-10-13T05:00:28.826Z,99.99
2017-10-13T05:01:28.936Z,99.99
2017-10-13T05:02:29.380Z,99.99
2017-10-13T05:03:28.729Z,99.99
2017-10-13T05:04:28.941Z,99.99
2017-10-13T05:05:29.064Z,99.99
2017-10-13T05:06:29.896Z,99.99
2017-10-13T05:07:28.750Z,99.99
2017-10-13T05:08:29.270Z,99.99
2017-10-13T05:09:28.167Z,99.99
2017-10-13T05:10:28.216Z,99.99
2017-10-13T05:11:28.229Z,99.99
2017-10-13T05:12:27.692Z,99.99
2017-10-13T05:13:27.824Z,99.99
2017-10-13T05:14:27.880Z,99.99
2017-10-13T05:15:28.217Z,99.99
2017-10-13T05:16:28.278Z,99.99
2017-10-13T05:17:28.083Z,99.99
2017-10-13T05:18:28.359Z,99.99
2017-10-13T05:19:27.851Z,99.99
2017-10-13T05:20:28.207Z,99.99
2017-10-13T05:21:27.696Z,99.99
2017-10-13T05:22:28.042Z,99.99
2017-10-13T05:23:28.799Z,99.99
2017-10-13T05:24:28.063Z,99.99
2017-10-13T05:25:28.477Z,99.99
2017-10-13T05:26:28.023Z,99.99
2017-10-13T05:27:28.306Z,99.99
2017-10-13T05:28:28.581Z,99.99
2017-10-13T05:29:27.849Z,99.99
2017-10-13T05:30:27.786Z,99.99
2017-10-13T05:31:27.729Z,99.99
2017-10-13T05:32:27.934Z,99.99
2017-10-13T05:33:28.255Z,99.99
2017-10-13T05:34:29.596Z,99.99
2017-10-13T05:35:27.415Z,99.99
2017-10-13T05:36:27.354Z,99.99
2017-10-13T05:37:27.580Z,99.99
2017-10-13T05:38:28.646Z,99.99
2017-10-13T05:39:28.430Z,99.99
2017-10-13T05:40:27.841Z,99.99
2017-10-13T05:41:27.986Z,99.99
2017-10-13T05:42:27.971Z,99.99
2017-10-13T05:43:28.592Z,99.99
2017-10-13T05:44:28.028Z,99.99
2017-10-13T05:45:28.229Z,99.99
2017-10-13T05:46:28.508Z,99.99
2017-10-13T05:47:28.311Z,99.99
2017-10-13T05:48:27.815Z,99.99
2017-10-13T05:49:28.539Z,99.99
2017-10-13T05:50:27.928Z,99.99
2017-10-13T05:51:27.978Z,99.99
2017-10-13T05:52:28.330Z,99.99
2017-10-13T05:53:28.420Z,99.99
2017-10-13T05:54:27.612Z,99.99
2017-10-13T05:55:28.019Z,99.99
2017-10-13T05:56:27.991Z,99.99
2017-10-13T05:57:28.138Z,99.99
2017-10-13T05:58:28.521Z,99.99
2017-10-13T05:59:27.810Z,99.99
2017-10-13T06:00:27.930Z,99.99
2017-10-13T06:01:28.138Z,99.99
2017-10-13T06:02:27.801Z,99.99
2017-10-13T06:03:28.223Z,99.99
2017-10-13T06:04:28.633Z,99.99
2017-10-13T06:05:27.722Z,99.99
2017-10-13T06:06:28.465Z,99.99
2017-10-13T06:07:27.745Z,99.99
2017-10-13T06:08:28.138Z,99.99
2017-10-13T06:09:28.478Z,99.99
2017-10-13T06:10:28.782Z,99.99
2017-10-13T06:11:28.805Z,99.99
2017-10-13T06:12:28.266Z,99.99
2017-10-13T06:13:27.779Z,99.99
2017-10-13T06:14:28.251Z,99.99
2017-10-13T06:15:27.752Z,99.99
2017-10-13T06:16:27.957Z,99.99
2017-10-13T06:17:28.816Z,99.99
2017-10-13T06:18:28.331Z,99.99
2017-10-13T06:19:27.464Z,99.99
2017-10-13T06:20:29.244Z,99.99
2017-10-13T06:21:27.510Z,99.99
2017-10-13T06:22:29.018Z,99.99
2017-10-13T06:23:28.920Z,99.99
2017-10-13T06:24:28.248Z,99.99
2017-10-13T06:25:28.847Z,99.99
2017-10-13T06:26:28.499Z,99.99
2017-10-13T06:27:30.171Z,99.99
2017-10-13T06:28:29.109Z,99.99
2017-10-13T06:29:28.518Z,99.99
2017-10-13T06:30:28.121Z,99.99
2017-10-13T06:31:28.529Z,99.99
2017-10-13T06:32:27.915Z,99.99
2017-10-13T06:33:28.336Z,99.99
2017-10-13T06:34:28.950Z,99.99
2017-10-13T06:35:28.432Z,99.99
2017-10-13T06:36:27.804Z,99.99
2017-10-13T06:37:28.204Z,99.99
2017-10-13T06:38:28.115Z,99.99
2017-10-13T06:39:27.728Z,99.99
2017-10-13T06:40:28.378Z,99.99
2017-10-13T06:41:27.983Z,99.99
2017-10-13T06:42:29.147Z,99.99
2017-10-13T06:43:28.304Z,99.99
2017-10-13T06:44:28.782Z,99.99
2017-10-13T06:45:28.689Z,99.99
2017-10-13T06:46:28.475Z,99.99
2017-10-13T06:47:28.011Z,99.99
2017-10-13T06:48:28.545Z,99.99
2017-10-13T06:49:28.117Z,99.99
2017-10-13T06:50:28.891Z,99.99
2017-10-13T06:51:28.247Z,99.99
2017-10-13T06:52:27.466Z,99.99
2017-10-13T06:53:28.225Z,99.99
2017-10-13T06:54:28.907Z,99.99
2017-10-13T06:55:28.185Z,99.99
2017-10-13T06:56:29.075Z,99.99
2017-10-13T06:57:28.807Z,99.99
2017-10-13T06:58:28.376Z,99.99
2017-10-13T06:59:27.759Z,99.99
2017-10-13T07:00:28.377Z,99.99
2017-10-13T07:01:28.151Z,99.99
2017-10-13T07:02:28.977Z,99.99
2017-10-13T07:03:28.537Z,99.99
2017-10-13T07:04:28.031Z,99.99
2017-10-13T07:05:28.733Z,99.99
2017-10-13T07:06:28.382Z,99.99
2017-10-13T07:07:28.675Z,99.99
2017-10-13T07:08:28.386Z,99.99
2017-10-13T07:09:27.785Z,99.99
2017-10-13T07:10:28.368Z,99.99
2017-10-13T07:11:28.072Z,99.99
2017-10-13T07:12:28.838Z,99.99
2017-10-13T07:13:28.435Z,99.99
2017-10-13T07:14:27.870Z,99.99
2017-10-13T07:15:27.767Z,99.94
2017-10-13T07:16:27.999Z,99.32
2017-10-13T07:17:28.258Z,98.75
2017-10-13T07:18:28.330Z,97.27
2017-10-13T07:19:27.850Z,95.46
2017-10-13T07:20:28.319Z,94.98
2017-10-13T07:21:27.806Z,94.79
2017-10-13T07:22:29.196Z,94.41
2017-10-13T07:23:28.603Z,94.03
2017-10-13T07:24:27.960Z,94.07
2017-10-13T07:25:28.431Z,93.70
2017-10-13T07:26:27.974Z,93.70
2017-10-13T07:27:27.962Z,92.12
2017-10-13T07:28:28.841Z,91.16
2017-10-13T07:29:28.437Z,91.50
2017-10-13T07:30:27.970Z,92.26
2017-10-13T07:31:28.893Z,92.83
2017-10-13T07:32:28.663Z,93.31
2017-10-13T07:33:28.379Z,93.70
2017-10-13T07:34:27.740Z,93.31
2017-10-13T07:35:29.174Z,93.51
2017-10-13T07:36:27.918Z,93.79
2017-10-13T07:37:28.498Z,93.65
2017-10-13T07:38:28.642Z,93.74
2017-10-13T07:39:27.965Z,93.88
2017-10-13T07:40:27.961Z,94.07
2017-10-13T07:41:28.033Z,93.88
2017-10-13T07:42:28.757Z,93.98
2017-10-13T07:43:28.566Z,93.88
2017-10-13T07:44:28.692Z,94.17
2017-10-13T07:45:28.328Z,94.17
2017-10-13T07:46:28.971Z,93.98
2017-10-13T07:47:28.572Z,94.07
2017-10-13T07:48:28.090Z,93.88
2017-10-13T07:49:28.913Z,93.60
2017-10-13T07:50:28.331Z,93.31
2017-10-13T07:51:28.392Z,92.93
2017-10-13T07:52:27.907Z,92.65
2017-10-13T07:53:28.569Z,92.65
2017-10-13T07:54:28.280Z,92.69
2017-10-13T07:55:28.565Z,92.60
2017-10-13T07:56:28.105Z,92.60
2017-10-13T07:57:28.458Z,92.50
2017-10-13T07:58:28.734Z,92.31
2017-10-13T07:59:28.091Z,92.21
2017-10-13T08:00:29.139Z,92.21
2017-10-13T08:01:28.627Z,91.64
2017-10-13T08:02:28.197Z,91.45
2017-10-13T08:03:27.640Z,91.45
2017-10-13T08:04:28.210Z,91.55
2017-10-13T08:05:29.270Z,91.83
2017-10-13T08:06:28.707Z,91.64
2017-10-13T08:07:28.314Z,91.55
2017-10-13T08:08:28.904Z,91.74
2017-10-13T08:09:28.479Z,91.88
2017-10-13T08:10:28.032Z,91.40
2017-10-13T08:11:28.645Z,91.02
2017-10-13T08:12:28.385Z,90.16
2017-10-13T08:13:28.022Z,89.97
2017-10-13T08:14:28.425Z,89.87
2017-10-13T08:15:27.558Z,89.49
2017-10-13T08:16:27.957Z,89.11
2017-10-13T08:17:28.143Z,88.92
2017-10-13T08:18:29.177Z,89.15
2017-10-13T08:19:28.343Z,88.87
2017-10-13T08:20:28.701Z,88.29
2017-10-13T08:21:28.213Z,88.29
2017-10-13T08:22:28.652Z,88.20
2017-10-13T08:23:28.118Z,88.68
2017-10-13T08:24:28.731Z,88.68
2017-10-13T08:25:28.503Z,88.96
2017-10-13T08:26:28.248Z,88.39
2017-10-13T08:27:28.752Z,88.39
2017-10-13T08:28:28.561Z,87.34
2017-10-13T08:29:27.890Z,86.71
2017-10-13T08:30:28.398Z,85.94
2017-10-13T08:31:27.897Z,85.38
2017-10-13T08:32:28.000Z,85.22
2017-10-13T08:33:28.449Z,84.27
2017-10-13T08:34:27.977Z,83.83
2017-10-13T08:35:28.546Z,83.06
2017-10-13T08:36:28.061Z,82.11
2017-10-13T08:37:28.731Z,82.11
2017-10-13T08:38:28.404Z,82.59
2017-10-13T08:39:27.906Z,82.54
2017-10-13T08:40:28.399Z,82.49
2017-10-13T08:41:27.896Z,82.01
2017-10-13T08:42:28.164Z,81.67
2017-10-13T08:43:28.924Z,81.20
2017-10-13T08:44:28.218Z,81.38
2017-10-13T08:45:28.630Z,79.99
2017-10-13T08:46:28.535Z,80.27
2017-10-13T08:47:27.992Z,79.99
2017-10-13T08:48:28.857Z,80.37
2017-10-13T08:49:28.639Z,79.66
2017-10-13T08:50:28.435Z,79.95
2017-10-13T08:51:28.091Z,79.66
2017-10-13T08:52:28.562Z,79.22
2017-10-13T08:53:27.981Z,79.66
2017-10-13T08:54:28.695Z,80.24
2017-10-13T08:55:28.106Z,79.32
2017-10-13T08:56:28.769Z,78.15
2017-10-13T08:57:27.769Z,74.62
2017-10-13T08:58:27.789Z,69.92
2017-10-13T08:59:28.253Z,64.18
2017-10-13T09:00:27.524Z,59.00
2017-10-13T09:01:27.903Z,55.09
2017-10-13T09:02:28.531Z,52.51
2017-10-13T09:03:28.289Z,52.12
2017-10-13T09:04:28.991Z,51.86
2017-10-13T09:05:28.568Z,50.14
2017-10-13T09:06:28.416Z,49.29
2017-10-13T09:07:27.681Z,48.06
2017-10-13T09:08:27.876Z,46.82
2017-10-13T09:09:28.121Z,45.92
2017-10-13T09:10:28.342Z,46.41
2017-10-13T09:11:28.221Z,46.77
2017-10-13T09:12:28.618Z,46.97
2017-10-13T09:13:28.117Z,47.24
2017-10-13T09:14:28.534Z,47.91
2017-10-13T09:15:27.472Z,48.20
2017-10-13T09:16:27.787Z,48.11
2017-10-13T09:17:28.005Z,48.47
2017-10-13T09:18:28.777Z,48.49
2017-10-13T09:19:28.342Z,46.87
2017-10-13T09:20:27.875Z,45.65
2017-10-13T09:21:27.877Z,44.51
2017-10-13T09:22:28.507Z,44.03
2017-10-13T09:23:28.438Z,44.68
2017-10-13T09:24:27.633Z,44.42
2017-10-13T09:25:27.985Z,43.64
2017-10-13T09:26:28.523Z,43.37
2017-10-13T09:27:54.379Z,41.49
2017-10-13T09:28:55.043Z,40.42
2017-10-13T09:29:54.454Z,40.79
2017-10-13T09:30:54.708Z,41.08
2017-10-13T09:31:55.254Z,40.42
2017-10-13T09:32:54.512Z,41.18
2017-10-13T09:33:54.819Z,40.62
2017-10-13T09:34:55.541Z,39.92
2017-10-13T09:35:54.623Z,40.66
2017-10-13T09:36:55.618Z,42.30
2017-10-13T09:37:54.717Z,42.57
2017-10-13T09:38:55.083Z,43.72
2017-10-13T09:39:54.796Z,45.34
2017-10-13T09:40:55.427Z,45.07
2017-10-13T09:41:55.171Z,45.05
2017-10-13T09:42:54.478Z,45.07
2017-10-13T09:43:54.997Z,43.27
2017-10-13T09:44:55.222Z,42.13
2017-10-13T09:45:55.024Z,41.28
2017-10-13T09:46:55.281Z,40.77
2017-10-13T09:47:54.846Z,40.99
2017-10-13T09:48:55.202Z,40.13
2017-10-13T09:49:55.699Z,39.75
2017-10-13T09:50:55.006Z,40.03
2017-10-13T09:51:55.086Z,39.94
2017-10-13T09:52:54.357Z,38.79
2017-10-13T09:53:54.535Z,38.21
2017-10-13T09:54:55.386Z,38.13
2017-10-13T09:55:55.090Z,38.13
2017-10-13T09:56:55.653Z,37.95
2017-10-13T09:57:55.318Z,37.00
2017-10-13T09:58:55.002Z,36.51
2017-10-13T09:59:55.297Z,37.72
2017-10-13T10:00:54.853Z,38.50
2017-10-13T10:01:55.497Z,38.62
2017-10-13T10:02:55.069Z,38.48
2017-10-13T10:03:54.357Z,39.24
2017-10-13T10:04:54.702Z,40.58
2017-10-13T10:05:55.050Z,41.99
2017-10-13T10:06:55.046Z,44.20
2017-10-13T10:07:55.491Z,45.10
2017-10-13T10:08:55.166Z,45.90
2017-10-13T10:09:54.533Z,47.86
2017-10-13T10:10:55.283Z,49.00
2017-10-13T10:11:54.465Z,48.81
2017-10-13T10:12:55.160Z,50.59
2017-10-13T10:13:55.266Z,52.86
2017-10-13T10:14:54.828Z,54.18
2017-10-13T10:15:16.080Z,54.76
2017-10-13T10:16:16.451Z,56.27
2017-10-13T10:17:16.007Z,57.67
2017-10-13T10:18:16.574Z,59.04
2017-10-13T10:19:16.006Z,57.98
2017-10-13T10:20:16.253Z,56.04
2017-10-13T10:21:16.670Z,52.33
2017-10-13T10:22:16.279Z,52.65
2017-10-13T10:23:17.138Z,51.81
2017-10-13T10:24:16.618Z,49.22
2017-10-13T10:25:15.883Z,50.91
2017-10-13T10:26:16.734Z,50.91
2017-10-13T10:27:15.993Z,51.71
2017-10-13T10:28:16.192Z,48.01
2017-10-13T10:29:16.346Z,46.31
2017-10-13T10:30:15.889Z,45.68
2017-10-13T10:31:16.652Z,49.19
2017-10-13T10:32:15.657Z,51.75
2017-10-13T10:33:16.231Z,54.18
2017-10-13T10:34:16.417Z,55.60
2017-10-13T10:35:16.136Z,57.21
2017-10-13T10:36:16.745Z,58.53
2017-10-13T10:37:15.926Z,58.27
2017-10-13T10:38:16.065Z,58.17
2017-10-13T10:39:16.739Z,59.14
2017-10-13T10:40:16.217Z,60.10
2017-10-13T10:41:16.717Z,59.72
2017-10-13T10:42:15.776Z,59.97
2017-10-13T10:43:16.021Z,61.00
2017-10-13T10:44:16.846Z,61.19
2017-10-13T10:45:16.681Z,62.71
2017-10-13T10:46:16.269Z,63.18
2017-10-13T10:47:16.498Z,63.38
2017-10-13T10:48:15.851Z,62.83
2017-10-13T10:49:16.649Z,61.13
2017-10-13T10:50:17.271Z,61.13
2017-10-13T10:51:16.046Z,62.06
2017-10-13T10:52:16.209Z,62.26
2017-10-13T10:53:17.031Z,61.87
2017-10-13T10:54:16.636Z,60.97
2017-10-13T10:55:16.042Z,59.75
2017-10-13T10:56:16.434Z,58.97
2017-10-13T10:57:16.226Z,58.33
2017-10-13T10:58:15.907Z,56.49
2017-10-13T10:59:16.561Z,57.56
2017-10-13T11:00:16.174Z,58.30
2017-10-13T11:01:15.903Z,59.07
2017-10-13T11:02:16.240Z,59.45
2017-10-13T11:03:15.630Z,59.75
2017-10-13T11:04:18.062Z,59.55
2017-10-13T11:05:16.149Z,59.52
2017-10-13T11:06:16.927Z,60.84
2017-10-13T11:07:16.419Z,62.06
2017-10-13T11:08:15.886Z,62.64
2017-10-13T11:09:16.725Z,63.18
2017-10-13T11:10:16.428Z,64.40
2017-10-13T11:11:16.173Z,65.37
2017-10-13T11:12:16.506Z,66.52
2017-10-13T11:13:16.744Z,66.77
2017-10-13T11:14:16.591Z,67.64
2017-10-13T11:15:16.746Z,67.45
2017-10-13T11:16:16.273Z,67.93
2017-10-13T11:17:16.922Z,68.70
2017-10-13T11:18:16.719Z,68.60
2017-10-13T11:19:16.130Z,67.29
2017-10-13T11:20:16.886Z,67.58
2017-10-13T11:21:16.394Z,65.50
2017-10-13T11:22:16.975Z,64.18
2017-10-13T11:23:16.274Z,62.99
2017-10-13T11:24:15.671Z,59.78
2017-10-13T11:25:15.895Z,57.87
2017-10-13T11:26:16.268Z,57.32
2017-10-13T11:27:15.606Z,55.49
2017-10-13T11:28:16.000Z,54.65
2017-10-13T11:29:16.260Z,52.77
2017-10-13T11:30:16.955Z,50.60
2017-10-13T11:31:16.636Z,48.15
2017-10-13T11:32:16.134Z,46.62
2017-10-13T11:33:16.750Z,45.97
2017-10-13T11:34:16.792Z,44.64
2017-10-13T11:35:16.390Z,43.34
2017-10-13T11:36:15.948Z,41.90
2017-10-13T11:37:16.852Z,40.88
2017-10-13T11:38:16.138Z,39.55
2017-10-13T11:39:16.552Z,37.35
2017-10-13T11:40:15.711Z,36.06
2017-10-13T11:41:16.591Z,36.14
2017-10-13T11:42:16.365Z,37.26
2017-10-13T11:43:15.862Z,37.66
2017-10-13T11:44:16.629Z,38.03
2017-10-13T11:45:15.805Z,38.91
2017-10-13T11:46:16.629Z,38.46
2017-10-13T11:47:16.505Z,36.04
2017-10-13T11:48:16.408Z,35.47
2017-10-13T11:49:15.768Z,35.39
2017-10-13T11:50:16.061Z,35.67
2017-10-13T11:51:16.328Z,36.72
2017-10-13T11:52:16.335Z,35.49
2017-10-13T11:53:17.129Z,34.16
2017-10-13T11:54:16.755Z,32.68
2017-10-13T11:55:16.066Z,33.18
2017-10-13T11:55:43.599Z,33.97
2017-10-13T11:56:44.354Z,33.44
2017-10-13T11:57:43.955Z,33.83
2017-10-13T11:58:44.781Z,33.64
2017-10-13T11:59:44.318Z,34.11
2017-10-13T12:00:44.011Z,34.59
2017-10-13T12:01:44.685Z,34.59
2017-10-13T12:02:44.436Z,35.93
2017-10-13T12:03:44.648Z,36.79
2017-10-13T12:04:44.732Z,37.08
2017-10-13T12:05:44.252Z,37.35
2017-10-13T12:06:44.019Z,38.11
2017-10-13T12:07:43.207Z,39.53
2017-10-13T12:08:43.729Z,41.41
2017-10-13T12:09:44.793Z,42.19
2017-10-13T12:10:45.776Z,42.65
2017-10-13T12:11:45.329Z,43.08
2017-10-13T12:12:44.027Z,41.45
2017-10-13T12:13:44.008Z,40.42
2017-10-13T12:14:45.103Z,40.41
2017-10-13T12:15:43.575Z,39.47
2017-10-13T12:16:43.895Z,37.56
2017-10-13T12:17:43.286Z,36.88
2017-10-13T12:18:43.940Z,36.71
2017-10-13T12:19:44.586Z,37.08
2017-10-13T12:20:44.264Z,36.98
2017-10-13T12:21:43.957Z,36.33
2017-10-13T12:22:43.256Z,35.65
2017-10-13T12:23:43.703Z,36.02
2017-10-13T12:24:44.961Z,35.46
2017-10-13T12:25:44.327Z,35.16
2017-10-13T12:26:44.347Z,35.16
2017-10-13T12:27:44.025Z,34.40
2017-10-13T12:28:43.540Z,34.52
2017-10-13T12:29:44.109Z,34.03
2017-10-13T12:30:44.386Z,34.14
2017-10-13T12:31:44.025Z,33.65
2017-10-13T12:32:44.519Z,33.46
2017-10-13T12:33:44.423Z,33.73
2017-10-13T12:34:45.086Z,33.85
2017-10-13T12:35:43.744Z,33.64
2017-10-13T12:36:44.244Z,33.65
2017-10-13T12:37:45.159Z,33.46
2017-10-13T12:38:43.371Z,34.21
2017-10-13T12:39:44.153Z,35.25
2017-10-13T12:40:43.771Z,35.93
2017-10-13T12:41:44.336Z,36.20
2017-10-13T12:42:43.458Z,36.57
2017-10-13T12:43:43.821Z,36.79
2017-10-13T12:44:43.981Z,37.64
2017-10-13T12:45:44.080Z,37.08
2017-10-13T12:46:43.387Z,37.45
2017-10-13T12:47:44.124Z,38.52
2017-10-13T12:48:43.279Z,38.79
2017-10-13T12:49:43.980Z,40.21
2017-10-13T12:50:44.798Z,40.09
2017-10-13T12:51:44.392Z,41.16
2017-10-13T12:52:44.223Z,41.61